Timeline UpdatesTrip UpdatesNews PostsPvt PostsTravel TipsAdmin PostsConv PostsFollowed PostsChat RequestsBlog PostsPNR Posts

Disclaimer
Search
 
 
Fri Apr 18, 2014 05:44:07 ISTHomeTrainsΣChainsAtlasPNRForumGalleryNewsFAQTripsMembersLoginFeedback
No Recent News for this Train
Other Trains in the News **new
Latest...
.
Sat Nov 30, 2013 (12:14PM)
⇐ Return Journey: Train# 13288

13287/South Bihar Express

Jul 01 2013 (4:22PM)
Change Departure Station:
Change Arrival Station:
Post a Train Travel TipPost a Train Travel Tip **new
Post a Comment/Question/Picture/VideoPost a Comment/Question/Picture/Video
Pantry/Catering
✕ NO Pantry Car
✓ Catering Avbl
local vendor sell items. Travelkhana.com supply food on order @...
Read more...
Rourkela/TATA
Loco/Rake Reversals
ASN/Asansol Junction (7); TATA/Tatanagar Junction (5);
RSA - Rake Sharing
Rake/Coach Composition
LOCO<SLD-GN-GN-H1-A1-A2-B3-B2-B1-S11-S10-S9-S8-S7-S6-S5-S4-S3-S2-S1-GN-GN-SLR
Loco
HWH/SRC WAP-4
News    PNR    Forum    Time-Table    Availability    Fare Chart    Map    Arr/Dep History    Trips    Gallery    ΣChains    X/O    Timeline    
Travel Time: 20h 40m    45 halts    Distance: 965 km    Avg Speed: 46 km/hr
Type: Mail/Express
Zone: ECR/East Central
Departs @ 10:30 (Avg 10m late)
Platform# 1
SMTWTFS
Bilaspur Junction/BSP 
Arrives @ 07:10 +1 night (Avg 24m late)
Platform# 3
SMTWTFS
Patna Junction/PNBE 

45 halts. 165 intermediate Stations between Bilaspur Junction and Patna Junction

Show ALL intermediate Stations  Show Old Time-Table

#CodeStation NameX/OArrivesAvgDepartsAvgHaltPFDay#KmSpeedElevZoneAddress
1DURGDurg Junction (6)  -07:25+141-147.454299mSECRPh: 91-788-2322059, Chhattisgarh
2BPHBBhilai Power House (3)  07:35+207:36+31m--1-138.449312mSECRBhilai, Chhattisgarh
3RRaipur Junction (6)X  08:10+208:20+310m51-110.467297mSECRRaipur, Chhattisgarh
4TLDTilda (3)  08:54+808:55+91m21-72.282291mSECRBanjari Rd, Chhattisgarh
5BYTBhatapara (4)X  09:14+1009:15+111m21-46.246270mSECRBanjari Road, Chhattisgarh
6BSP»Bilaspur Junction (8)»X  10:15+210:30+1015m110.061271mSECRBilaspur, Chhattisgarh
7AKTAkaltara (4)X  10:57+1010:58+111m--127.252284mSECRDist. Janjgir Champa, Chhattisgarh
8CPHChampa Junction (3)  11:28+611:30+72m2153.087264mSECRNational Highway 200 (07819-245767), Chhattisgarh
9SKTSakti (4)  11:51+1111:52+121m--183.471237mSECRJanjgir-Champa, Chhattisgarh
10KHSKharsia  12:05+1512:06+161m--198.864259mSECRNational Highway 200, Chhattisgarh
11RIGRaigarh (3)X  12:38+1712:43+165m11132.892220mSECRRaigarh, Chhattisgarh
12BRJNBrajrajnagar  13:22+2413:23+261m--1192.719212mSECRBrajrajnagar, Odisha
13JSGJharsuguda Junction (5)X  14:00+714:05+85m--1204.481236mSERJharsuguda, Odisha
14BMBBamra (3)X  14:32+1214:33+141m--1240.980259mSERBamra PH : 06642-229268, Odisha
15GPRaj Gangpur (3)  14:59+1515:00+161m--1275.551237mSERRaj Ganpur, Odisha
16ROURourkela Junction (5)  15:35+1115:50+1315m41305.439198mSERRourkela, Odisha
17BNDMBondamunda (3)  16:00+2216:01+221m21311.971213mSERRourkela, Odisha
18MOUManoharpurX  16:29+2316:30+241m31345.157228mSERManoharpur, Jharkhand
19GOLGoilkera  16:59+2317:00+241m11372.659333mSERGoilkera, Jharkhand
20SWRSonua  17:13+2317:14+241m11385.452287mSERSonua, Jharkhand
21CKPChakradharpur (3)  17:38+1617:40+162m21406.475235mSERChakradharpur (West Singhbhum), Jharkhand
22RKSNRajkharsawan JunctionX  17:56+2017:57+211m21426.551189mSERWest Singhbhum district, Jharkhand
23SINISini JunctionX  18:15+2018:16+201m11441.741182mSERNational Highway 33, Jharkhand
24TATATatanagar Junction (5)X18:55+1719:35+1040m21468.723164mSER91-657-2423026, Jharkhand
25ADTPAdityapur (3)  19:47+019:48+01m11473.340152mSERJamshedpur, Jharkhand
26KNDKandra (4)X  20:12+1120:13+121m--1489.327176mSERJamshedpur, Jharkhand
27CNIChandil Junction (4)X  20:45+1120:47+122m21503.578178mSERChandil, Jharkhand
28BBMBarabhum  21:04+1721:05+181m--1525.764229mSERBalarampur, West Bengal
29PRRPurulia Junction (4)  21:35+1721:40+165m31557.557240mSERPurulia, West Bengal
30ANRAnara (2)  22:07+1722:08+181m--1583.328216mSERdist - Purulia, West Bengal
31JOCJoychandi Pahar (3)  22:37+822:38+121m--1596.650176mSERDist - Purulia, West Bengal
32BURNBurnpur (3)  23:17+1223:18+211m--1628.86134mSERCHITRA CINEMA HALL MORE, West Bengal
33ASNAsansol Junction (7)XO00:05+400:30+725m52633.763113mERDist - bardhaman, West Bengal
34CRJChittaranjan (3)X  00:54+1600:55+171m32658.872182mERMihijam, Jharkhand
35JMTJamtara (2)  01:07+1801:08+191m12673.162201mERJamtara, Jharkhand
36MDPMadhupur Junction (4)X  01:49+1701:53+174m--2715.270254mER06432-224478, Jharkhand
37JSMEJasidih Junction (5)X  02:18+1902:23+185m--2744.354271mERJasidih, Jharkhand
38JAJJhajha (4)X  03:12+1503:17+175m--2788.478143mECRJhajha, Bihar
39JMUJamui (3)  03:37+2103:38+251m--2814.46881mECRState Highway 72, Bihar
40KIULKiul Junction (5)X  04:02+2804:07+285m--2841.71253mECRDist. Lakhisarai, Bihar
41LKRLuckeesarai Junction (2)  04:14+2804:15+291m--2843.06552mECRLakhisarai, Bihar
42BRYABarhiyaXO  04:29+3504:30+371m--2858.14747mECRBarahiya, Bihar
43HTZHathidah Junction (2)  04:42+3804:43+391m22867.55050mECRMusahari, Bihar
44MKAMokama Junction (3)  04:53+4004:55+402m12875.98248mECRPatna, Bihar
45BARHBarh (3)O  05:14+4405:15+461m22901.86149mECRBarh, Bihar
46ATLAthmal Gola (2)X  05:24+4605:25+471m12911.04552mECRPatna, Bihar
47BKPBakhtiyarpur Junction (5)X  05:37+4505:39+502m22920.03851mECRPatna, Bihar
48KOOKhusropur (2)X  06:02+4206:03+441m--2934.65652mECRPatna, Bihar
49FUTFatwa (6)  06:12+4406:13+451m--2943.07353mECRPatna, Bihar
50PNCPatna Saheb (3)XO  06:23+4606:24+471m--2955.31559mECRPatna, Bihar
51RJPBRajendra Nagar Bihar (4)X  06:54+2906:56+302m32962.51155mECRPatna 800001, Bihar
52PNBE•Patna Junction (10)•X  07:10+2407:20+2610m32965.11657mECRPatna 800001, Bihar
53DNRDanapur (5)  07:55+23-52974.5-58mECRKhagaul, Bihar
Scroll to Top
Scroll to Bottom